Time;durP1;ratioP1;P1;durP2;ratioP2;P2;SDS_P1;SDS_P2;PMS_P1;PMS_P2;Temp;Humidity;BMP_temperature;BMP_pressure;BME280_temperature;BME280_humidity;BME280_pressure;Samples;Min_cycle;Max_cycle;Signal;HPM_P1;HPM_P2
2023/02/13 00:02:09;;;;;;;;;;;;;;;-8.00;82.31;100006.53;5106214;28;20385;-76
2023/02/13 00:04:35;;;;;;;;;;;;;;;-7.95;82.63;100000.78;5105940;28;19928;-76
2023/02/13 00:07:01;;;;;;;;;;;;;;;-7.90;82.53;100002.97;5085045;28;19932;-76
2023/02/13 00:09:28;;;;;;;;;;;;;;;-7.86;82.19;99994.56;5087208;28;20038;-74
2023/02/13 00:11:54;;;;;;;;;;;;;;;-7.83;82.23;99999.56;5083681;28;20263;-73
2023/02/13 00:14:20;;;;;;;;;;;;;;;-7.76;82.11;99991.84;5084530;28;20087;-73
2023/02/13 00:16:46;;;;;;;;;;;;;;;-7.68;81.66;99991.09;5083541;28;20387;-74
2023/02/13 00:19:12;;;;;;;;;;;;;;;-7.65;81.61;99976.69;5085671;28;20001;-74
2023/02/13 00:21:38;;;;;;;;;;;;;;;-7.60;81.51;99985.88;5088167;28;19928;-74
2023/02/13 00:24:04;;;;;;;;;;;;;;;-7.54;81.03;99976.47;5089344;28;19935;-75
2023/02/13 00:26:31;;;;;;;;;;;;;;;-7.49;80.89;99968.84;5085363;28;19939;-74
2023/02/13 00:28:57;;;;;;;;;;;;;;;-7.39;81.02;99966.13;5092253;28;19946;-74
2023/02/13 00:31:23;;;;;;;;;;;;;;;-7.33;80.79;99956.69;5105446;28;19969;-73
2023/02/13 00:33:49;;;;;;;;;;;;;;;-7.24;80.60;99961.09;5106200;28;19936;-74
2023/02/13 00:36:17;;;;;;;;;;;;;;;-7.17;80.63;99950.69;5078911;28;19932;-74
2023/02/13 00:38:44;;;;;;;;;;;;;;;-7.04;80.21;99950.25;5088283;28;20402;-74
2023/02/13 00:41:11;;;;;;;;;;;;;;;-6.98;79.85;99941.66;5066364;28;19932;-74
2023/02/13 00:43:38;;;;;;;;;;;;;;;-6.93;79.94;99941.19;5072795;28;19973;-74
2023/02/13 00:46:05;;;;;;;;;;;;;;;-6.90;79.44;99936.41;5087753;28;20026;-73
2023/02/13 00:48:32;;;;;;;;;;;;;;;-6.83;79.33;99933.94;5100337;28;19939;-74
2023/02/13 00:50:58;;;;;;;;;;;;;;;-6.81;79.39;99926.63;5106732;28;19927;-76
2023/02/13 00:53:24;;;;;;;;;;;;;;;-6.73;79.04;99929.31;5105598;28;19950;-74
2023/02/13 00:55:51;;;;;;;;;;;;;;;-6.63;78.86;99928.38;5070852;28;19969;-74
2023/02/13 00:58:18;;;;;;;;;;;;;;;-6.57;78.40;99914.44;5070652;28;19928;-75
2023/02/13 01:00:46;;;;;;;;;;;;;;;-6.53;78.41;99913.13;5087425;28;19928;-75
2023/02/13 01:03:12;;;;;;;;;;;;;;;-6.52;78.10;99913.94;5083635;28;20312;-76
2023/02/13 01:05:37;;;;;;;;;;;;;;;-6.52;78.29;99912.13;5085076;28;19928;-75
2023/02/13 01:08:04;;;;;;;;;;;;;;;-6.48;78.21;99917.94;5085098;28;19950;-75
2023/02/13 01:10:30;;;;;;;;;;;;;;;-6.45;78.12;99910.50;5100819;28;20042;-76
2023/02/13 01:12:56;;;;;;;;;;;;;;;-6.37;77.71;99908.88;5102409;28;19928;-75
2023/02/13 01:15:22;;;;;;;;;;;;;;;-6.33;77.37;99905.69;5106843;28;20390;-75
2023/02/13 01:17:51;;;;;;;;;;;;;;;-6.25;77.05;99909.38;5103719;28;19928;-76
2023/02/13 01:20:17;;;;;;;;;;;;;;;-6.24;76.79;99903.06;5086893;28;19927;-76
2023/02/13 01:22:43;;;;;;;;;;;;;;;-6.27;76.53;99904.22;5088065;28;19954;-76
2023/02/13 01:25:09;;;;;;;;;;;;;;;-6.21;76.39;99889.44;5065700;28;20318;-76
2023/02/13 01:27:37;;;;;;;;;;;;;;;-6.19;76.41;99896.25;5068438;28;19981;-76
2023/02/13 01:30:03;;;;;;;;;;;;;;;-6.15;76.18;99894.13;5060229;28;19928;-76
2023/02/13 01:32:29;;;;;;;;;;;;;;;-6.13;76.13;99884.13;5085234;28;19928;-77
2023/02/13 01:34:56;;;;;;;;;;;;;;;-6.10;76.15;99883.81;5080812;28;20022;-76
2023/02/13 01:37:22;;;;;;;;;;;;;;;-6.04;76.03;99882.31;5083533;28;19928;-76
2023/02/13 01:39:49;;;;;;;;;;;;;;;-6.01;75.92;99884.66;5083960;28;19928;-75
2023/02/13 01:42:16;;;;;;;;;;;;;;;-6.02;75.78;99869.66;5068952;28;19973;-76
2023/02/13 01:44:46;;;;;;;;;;;;;;;-6.01;75.62;99858.84;5082252;28;19928;-75
2023/02/13 01:47:16;;;;;;;;;;;;;;;-6.06;75.43;99858.50;5063161;28;20031;-77
2023/02/13 01:49:44;;;;;;;;;;;;;;;-6.03;75.47;99858.16;5084496;28;19935;-76
2023/02/13 01:52:12;;;;;;;;;;;;;;;-5.98;75.15;99854.97;5085199;28;19932;-76
2023/02/13 01:54:39;;;;;;;;;;;;;;;-5.93;75.14;99843.84;5085343;28;19935;-76
2023/02/13 01:57:08;;;;;;;;;;;;;;;-5.94;74.84;99842.19;5052540;28;19982;-75
2023/02/13 01:59:36;;;;;;;;;;;;;;;-5.93;74.84;99835.84;5067013;28;19989;-74
2023/02/13 02:02:02;;;;;;;;;;;;;;;-5.95;74.83;99832.53;5085917;28;19927;-74
2023/02/13 02:04:31;;;;;;;;;;;;;;;-5.95;74.95;99827.19;5084968;28;19977;-75
2023/02/13 02:06:59;;;;;;;;;;;;;;;-5.96;74.95;99822.88;5086253;28;19935;-74
2023/02/13 02:09:32;;;;;;;;;;;;;;;-5.97;75.17;99814.03;5083181;28;20399;-73
2023/02/13 02:12:00;;;;;;;;;;;;;;;-5.99;74.96;99810.72;5082205;28;19934;-74
2023/02/13 02:14:26;;;;;;;;;;;;;;;-6.01;75.13;99808.25;5087449;28;19932;-73
2023/02/13 02:16:55;;;;;;;;;;;;;;;-5.99;75.32;99808.91;5097597;28;19927;-75
2023/02/13 02:19:34;;;;;;;;;;;;;;;-5.92;75.27;99813.53;5096421;28;20038;-74
2023/02/13 02:22:12;;;;;;;;;;;;;;;-5.92;74.71;99805.56;5082701;28;20038;-74
2023/02/13 02:24:56;;;;;;;;;;;;;;;-5.96;74.77;99805.06;5067575;28;20225;-74
2023/02/13 02:27:35;;;;;;;;;;;;;;;-5.97;74.80;99808.72;5086434;28;20498;-74
2023/02/13 02:30:14;;;;;;;;;;;;;;;-5.96;74.62;99805.06;5088134;28;20406;-75
2023/02/13 02:32:47;;;;;;;;;;;;;;;-5.92;74.66;99801.06;5046706;28;19928;-74
2023/02/13 02:35:20;;;;;;;;;;;;;;;-5.91;74.35;99797.41;5087997;28;19932;-74
2023/02/13 02:37:54;;;;;;;;;;;;;;;-5.88;74.34;99790.91;5102783;28;19934;-74
2023/02/13 02:40:24;;;;;;;;;;;;;;;-5.88;74.08;99781.09;5085171;28;19942;-74
2023/02/13 02:43:00;;;;;;;;;;;;;;;-5.84;74.09;99785.06;5084365;28;19928;-75
2023/02/13 02:45:28;;;;;;;;;;;;;;;-5.86;73.32;99780.91;5067984;28;19932;-74
2023/02/13 02:50:48;;;;;;;;;;;;;;;-5.90;73.56;99766.25;5088496;28;19928;-76
2023/02/13 02:53:23;;;;;;;;;;;;;;;-5.92;73.65;99768.28;5083264;28;20152;-75
2023/02/13 02:55:51;;;;;;;;;;;;;;;-5.85;73.39;99754.13;5083800;28;19932;-76
2023/02/13 03:06:43;;;;;;;;;;;;;;;-5.76;73.24;99738.13;5088613;28;19959;-75
2023/02/13 03:14:41;;;;;;;;;;;;;;;-5.77;73.31;99747.13;5086706;28;20027;-76
2023/02/13 03:22:48;;;;;;;;;;;;;;;-5.70;73.84;99729.44;5087897;28;19928;-74
2023/02/13 03:25:29;;;;;;;;;;;;;;;-5.63;73.87;99737.59;5087395;28;19928;-74
2023/02/13 03:30:49;;;;;;;;;;;;;;;-5.70;74.25;99727.63;5085797;28;20365;-74
2023/02/13 03:33:26;;;;;;;;;;;;;;;-5.71;74.54;99717.94;5088342;28;19928;-74
2023/02/13 03:38:50;;;;;;;;;;;;;;;-5.76;75.59;99704.31;5093161;28;20287;-74
2023/02/13 03:41:19;;;;;;;;;;;;;;;-5.76;76.10;99708.81;5105077;28;20501;-75
2023/02/13 03:43:50;;;;;;;;;;;;;;;-5.78;76.37;99697.50;5106573;28;19934;-74
2023/02/13 03:46:18;;;;;;;;;;;;;;;-5.83;77.08;99690.03;5106603;28;19950;-74
2023/02/13 03:51:35;;;;;;;;;;;;;;;-5.78;77.70;99674.34;5106658;28;20449;-75
2023/02/13 03:54:03;;;;;;;;;;;;;;;-5.73;77.86;99674.66;5086565;28;19932;-74
2023/02/13 03:59:19;;;;;;;;;;;;;;;-5.58;77.61;99674.78;5101801;28;20445;-74
2023/02/13 04:01:48;;;;;;;;;;;;;;;-5.51;77.47;99679.44;5091873;28;20378;-74
2023/02/13 04:04:18;;;;;;;;;;;;;;;-5.50;77.70;99675.75;5095006;28;20104;-74
2023/02/13 04:06:48;;;;;;;;;;;;;;;-5.49;77.82;99680.06;5094467;28;20077;-74
2023/02/13 04:09:14;;;;;;;;;;;;;;;-5.52;77.86;99657.28;5087282;28;19974;-74
2023/02/13 04:11:46;;;;;;;;;;;;;;;-5.41;77.88;99670.22;5068457;28;19934;-75
2023/02/13 04:14:15;;;;;;;;;;;;;;;-5.37;77.77;99670.69;5101399;28;20375;-75
2023/02/13 04:16:43;;;;;;;;;;;;;;;-5.32;77.71;99662.19;5107763;28;20390;-75
2023/02/13 04:19:10;;;;;;;;;;;;;;;-5.24;77.80;99662.13;5084246;28;19928;-74
2023/02/13 04:21:37;;;;;;;;;;;;;;;-5.30;77.66;99657.50;5090095;28;19954;-74
2023/02/13 04:24:05;;;;;;;;;;;;;;;-5.39;78.21;99646.06;5107564;27;19928;-74
2023/02/13 04:26:34;;;;;;;;;;;;;;;-5.39;78.44;99640.72;5105779;28;19932;-74
2023/02/13 04:28:59;;;;;;;;;;;;;;;-5.39;78.69;99629.22;5094669;28;19967;-75
2023/02/13 04:31:25;;;;;;;;;;;;;;;-5.31;78.64;99626.53;5092610;28;19962;-75
2023/02/13 04:33:51;;;;;;;;;;;;;;;-5.28;78.73;99623.50;5086491;28;19939;-76
2023/02/13 04:36:17;;;;;;;;;;;;;;;-5.30;78.86;99618.38;5061178;28;19928;-75
2023/02/13 04:38:44;;;;;;;;;;;;;;;-5.27;79.35;99618.00;5090830;28;19935;-75
2023/02/13 04:41:11;;;;;;;;;;;;;;;-5.22;79.31;99614.81;5098679;28;19927;-77
2023/02/13 04:43:37;;;;;;;;;;;;;;;-5.24;79.57;99610.66;5092398;28;20390;-75
2023/02/13 04:46:03;;;;;;;;;;;;;;;-5.18;79.36;99618.78;5085797;28;20398;-76
2023/02/13 04:48:30;;;;;;;;;;;;;;;-5.18;79.70;99616.13;5084356;28;20022;-76
2023/02/13 04:50:56;;;;;;;;;;;;;;;-5.19;79.91;99608.28;5091675;28;20485;-75
2023/02/13 04:53:22;;;;;;;;;;;;;;;-5.17;79.92;99593.78;5098776;28;19971;-75
2023/02/13 04:55:48;;;;;;;;;;;;;;;-5.17;80.00;99596.44;5095806;28;19977;-76
2023/02/13 04:58:15;;;;;;;;;;;;;;;-5.21;80.15;99592.50;5103448;28;19988;-75
2023/02/13 05:00:41;;;;;;;;;;;;;;;-5.20;80.21;99606.63;5092377;28;19928;-76
2023/02/13 05:03:08;;;;;;;;;;;;;;;-5.22;80.07;99592.66;5087068;28;19934;-74
2023/02/13 05:05:34;;;;;;;;;;;;;;;-5.25;80.03;99583.16;5105805;28;19950;-75
2023/02/13 05:08:00;;;;;;;;;;;;;;;-5.26;80.03;99584.16;5085411;28;20446;-75
2023/02/13 05:10:26;;;;;;;;;;;;;;;-5.27;79.94;99580.69;5092106;28;20379;-75
2023/02/13 05:12:52;;;;;;;;;;;;;;;-5.31;79.86;99560.72;5082398;28;20022;-76
2023/02/13 05:15:21;;;;;;;;;;;;;;;-5.31;79.86;99563.41;5100236;28;19928;-76
2023/02/13 05:17:47;;;;;;;;;;;;;;;-5.25;79.82;99547.69;5090247;28;19958;-74
2023/02/13 05:20:13;;;;;;;;;;;;;;;-5.26;79.33;99541.50;5085745;28;20432;-74
2023/02/13 05:25:27;;;;;;;;;;;;;;;-5.31;79.32;99557.22;5106882;28;19976;-74
2023/02/13 05:27:53;;;;;;;;;;;;;;;-5.30;79.35;99562.38;5105430;28;19946;-74
2023/02/13 05:30:20;;;;;;;;;;;;;;;-5.28;79.15;99559.53;5089713;28;20398;-73
2023/02/13 05:32:46;;;;;;;;;;;;;;;-5.24;79.23;99547.50;5084743;28;19963;-73
2023/02/13 05:35:12;;;;;;;;;;;;;;;-5.20;78.89;99547.97;5109469;27;20126;-74
2023/02/13 05:37:38;;;;;;;;;;;;;;;-5.16;78.81;99549.28;5094178;27;19996;-73
2023/02/13 05:40:04;;;;;;;;;;;;;;;-5.17;78.82;99542.28;5083567;28;19931;-74
2023/02/13 05:42:30;;;;;;;;;;;;;;;-5.05;78.52;99548.84;5082382;28;19928;-74
2023/02/13 05:44:56;;;;;;;;;;;;;;;-4.99;78.48;99537.50;5066146;28;20444;-74
2023/02/13 05:47:24;;;;;;;;;;;;;;;-4.92;78.20;99542.91;5067091;28;19932;-74
2023/02/13 05:49:49;;;;;;;;;;;;;;;-4.88;78.45;99532.72;5081511;28;19934;-74
2023/02/13 05:52:15;;;;;;;;;;;;;;;-4.85;77.99;99549.19;5078542;28;20026;-74
2023/02/13 05:54:41;;;;;;;;;;;;;;;-4.88;77.83;99538.06;5078671;28;20578;-74
2023/02/13 05:57:07;;;;;;;;;;;;;;;-4.91;77.91;99546.41;5078019;28;19928;-75
2023/02/13 05:59:35;;;;;;;;;;;;;;;-4.94;78.15;99542.25;5087055;28;19932;-73
2023/02/13 06:02:01;;;;;;;;;;;;;;;-4.96;78.08;99544.28;5089270;28;20399;-75
2023/02/13 06:04:28;;;;;;;;;;;;;;;-4.88;78.33;99536.22;5107465;28;19941;-76
2023/02/13 06:06:54;;;;;;;;;;;;;;;-4.86;78.03;99536.88;5101986;28;19927;-75
2023/02/13 06:09:20;;;;;;;;;;;;;;;-4.82;78.02;99544.50;5101969;28;19927;-76
2023/02/13 06:11:46;;;;;;;;;;;;;;;-4.82;77.99;99541.84;5099819;28;19969;-75
2023/02/13 06:14:13;;;;;;;;;;;;;;;-4.80;77.96;99543.34;5093838;28;19927;-75
2023/02/13 06:16:39;;;;;;;;;;;;;;;-4.78;78.01;99529.78;4031013;28;10000650;-75
2023/02/13 06:19:05;;;;;;;;;;;;;;;-4.76;77.99;99531.28;5081653;28;20517;-74
2023/02/13 06:21:36;;;;;;;;;;;;;;;-4.74;77.77;99542.59;5082913;28;19928;-75
2023/02/13 06:24:02;;;;;;;;;;;;;;;-4.71;77.82;99534.22;5086852;28;19954;-74
2023/02/13 06:26:28;;;;;;;;;;;;;;;-4.63;77.79;99538.66;5101706;28;19932;-75
2023/02/13 06:28:54;;;;;;;;;;;;;;;-4.59;77.45;99534.63;5102232;28;19980;-74
2023/02/13 06:31:20;;;;;;;;;;;;;;;-4.55;77.22;99535.06;5098552;28;19932;-75
2023/02/13 06:33:46;;;;;;;;;;;;;;;-4.50;77.23;99530.03;5082156;28;19928;-75
2023/02/13 06:36:12;;;;;;;;;;;;;;;-4.48;76.89;99532.50;5082136;28;20414;-75
2023/02/13 06:38:39;;;;;;;;;;;;;;;-4.52;76.97;99524.06;5097777;28;20237;-75
2023/02/13 06:41:05;;;;;;;;;;;;;;;-4.45;77.20;99522.31;5064522;28;20130;-76
2023/02/13 06:43:32;;;;;;;;;;;;;;;-4.38;77.03;99513.53;5081180;28;19932;-75
2023/02/13 06:45:57;;;;;;;;;;;;;;;-4.32;76.74;99512.81;5062765;28;20478;-74
2023/02/13 06:48:24;;;;;;;;;;;;;;;-4.27;76.67;99513.94;5085588;28;19928;-75
2023/02/13 06:50:52;;;;;;;;;;;;;;;-4.30;76.57;99500.94;5085623;28;20031;-75
2023/02/13 06:53:23;;;;;;;;;;;;;;;-4.23;76.63;99505.53;5087386;28;19928;-74
2023/02/13 06:55:52;;;;;;;;;;;;;;;-4.15;76.51;99508.94;5087999;28;19928;-74
2023/02/13 06:58:18;;;;;;;;;;;;;;;-4.11;76.38;99488.03;5087698;28;19935;-74
2023/02/13 07:00:44;;;;;;;;;;;;;;;-4.06;76.16;99490.13;5088112;28;19928;-74
2023/02/13 07:03:10;;;;;;;;;;;;;;;-4.01;76.18;99487.75;5097767;28;20030;-74
2023/02/13 07:05:38;;;;;;;;;;;;;;;-4.00;75.71;99486.72;5105063;28;19979;-74
2023/02/13 07:08:04;;;;;;;;;;;;;;;-4.21;76.20;99453.63;5105650;28;20032;-74
2023/02/13 07:10:30;;;;;;;;;;;;;;;-4.00;76.18;99471.50;5111711;28;19928;-75
2023/02/13 07:12:57;;;;;;;;;;;;;;;-3.93;76.16;99471.59;5107326;27;20437;-75
2023/02/13 07:15:23;;;;;;;;;;;;;;;-3.92;76.10;99467.09;5106955;28;19955;-75
2023/02/13 07:17:54;;;;;;;;;;;;;;;-3.91;76.16;99464.22;5086876;28;20020;-75
2023/02/13 07:20:20;;;;;;;;;;;;;;;-4.00;76.14;99468.84;5107116;28;20397;-74
2023/02/13 07:22:46;;;;;;;;;;;;;;;-4.10;76.60;99463.00;5101009;28;19985;-74
2023/02/13 07:25:12;;;;;;;;;;;;;;;-4.11;76.89;99450.66;5096104;28;19934;-74
2023/02/13 07:27:38;;;;;;;;;;;;;;;-4.03;77.04;99458.53;5077819;28;20320;-74
2023/02/13 07:30:07;;;;;;;;;;;;;;;-3.95;77.18;99460.28;5101208;28;19928;-74
2023/02/13 07:32:32;;;;;;;;;;;;;;;-3.93;76.98;99463.59;5099982;28;20061;-74
2023/02/13 07:34:58;;;;;;;;;;;;;;;-3.91;77.31;99448.19;5101713;28;20365;-75
2023/02/13 07:37:24;;;;;;;;;;;;;;;-3.82;77.37;99446.25;5108731;28;19928;-76
2023/02/13 07:39:49;;;;;;;;;;;;;;;-3.75;77.14;99441.78;5103753;28;19936;-74
2023/02/13 07:42:15;;;;;;;;;;;;;;;-3.65;77.04;99444.16;5099882;28;19935;-75
2023/02/13 07:44:41;;;;;;;;;;;;;;;-3.62;77.08;99448.28;5108061;28;20304;-75
2023/02/13 07:47:09;;;;;;;;;;;;;;;-3.58;76.99;99444.22;5106825;28;20000;-74
2023/02/13 07:49:35;;;;;;;;;;;;;;;-3.57;77.24;99437.84;5084208;28;19934;-74
2023/02/13 07:52:02;;;;;;;;;;;;;;;-3.49;76.99;99440.41;5105888;28;20238;-75
2023/02/13 07:54:27;;;;;;;;;;;;;;;-3.42;76.94;99433.25;5104054;28;19932;-75
2023/02/13 07:56:53;;;;;;;;;;;;;;;-3.40;76.77;99433.09;5107867;28;19934;-74
2023/02/13 07:59:19;;;;;;;;;;;;;;;-3.42;76.55;99435.13;5107289;28;19927;-74
2023/02/13 08:01:45;;;;;;;;;;;;;;;-3.39;76.55;99437.41;5104089;28;20306;-74
2023/02/13 08:04:12;;;;;;;;;;;;;;;-3.36;76.60;99437.00;5085391;28;19928;-74
2023/02/13 08:06:38;;;;;;;;;;;;;;;-3.32;76.57;99443.63;5105106;28;19928;-74
2023/02/13 08:11:52;;;;;;;;;;;;;;;-3.16;76.02;99429.16;5104627;28;20029;-74
2023/02/13 08:14:18;;;;;;;;;;;;;;;-3.09;76.29;99418.50;5085028;28;20022;-74
2023/02/13 08:16:44;;;;;;;;;;;;;;;-3.03;76.39;99415.03;5083544;28;20034;-74
2023/02/13 08:19:09;;;;;;;;;;;;;;;-3.01;76.48;99412.19;5101169;28;20401;-74
2023/02/13 08:21:39;;;;;;;;;;;;;;;-2.97;76.75;99408.09;5103918;27;19928;-75
2023/02/13 08:24:05;;;;;;;;;;;;;;;-2.91;77.13;99409.16;5098974;28;19927;-76
2023/02/13 08:26:31;;;;;;;;;;;;;;;-2.85;77.11;99401.19;5106291;28;20019;-76
2023/02/13 08:28:57;;;;;;;;;;;;;;;-2.83;77.25;99392.13;5100021;28;19934;-75
2023/02/13 08:31:23;;;;;;;;;;;;;;;-2.79;77.40;99388.88;5107665;28;19932;-75
2023/02/13 08:33:49;;;;;;;;;;;;;;;-2.75;77.31;99378.56;5109848;28;20417;-74
2023/02/13 08:36:15;;;;;;;;;;;;;;;-2.64;77.20;99375.34;5104543;28;19934;-76
2023/02/13 08:38:43;;;;;;;;;;;;;;;-2.60;76.87;99373.91;5106942;28;19928;-75
2023/02/13 08:41:09;;;;;;;;;;;;;;;-2.58;77.12;99365.69;5065813;28;19928;-76
2023/02/13 08:43:35;;;;;;;;;;;;;;;-2.68;77.12;99366.06;5105871;28;19981;-75
2023/02/13 08:46:01;;;;;;;;;;;;;;;-2.71;77.34;99364.59;5088457;28;20030;-75
2023/02/13 08:48:26;;;;;;;;;;;;;;;-2.67;77.55;99374.91;5085638;28;19927;-74
2023/02/13 08:50:52;;;;;;;;;;;;;;;-2.60;77.48;99362.38;5105640;28;19993;-74
2023/02/13 08:53:18;;;;;;;;;;;;;;;-2.57;77.51;99364.66;5105020;28;20364;-74
2023/02/13 08:55:52;;;;;;;;;;;;;;;-2.59;77.65;99354.16;5098227;28;19928;-74
2023/02/13 08:58:17;;;;;;;;;;;;;;;-2.63;77.72;99355.56;5098240;28;19973;-74
2023/02/13 09:00:43;;;;;;;;;;;;;;;-2.61;77.99;99350.03;5082108;28;19974;-76
2023/02/13 09:03:10;;;;;;;;;;;;;;;-2.55;77.89;99346.53;5106868;28;19927;-75
2023/02/13 09:05:35;;;;;;;;;;;;;;;-2.48;77.90;99347.41;5103092;28;19934;-74
2023/02/13 09:08:02;;;;;;;;;;;;;;;-2.43;78.17;99341.44;5066232;28;20022;-74
2023/02/13 09:10:28;;;;;;;;;;;;;;;-2.40;77.96;99346.41;5065941;28;19977;-75
2023/02/13 09:12:55;;;;;;;;;;;;;;;-2.32;77.82;99340.03;5101180;28;19928;-74
2023/02/13 09:15:21;;;;;;;;;;;;;;;-2.38;78.10;99340.84;5102438;28;20359;-74
2023/02/13 09:17:47;;;;;;;;;;;;;;;-2.34;78.25;99331.38;5104599;28;19974;-74
2023/02/13 09:20:13;;;;;;;;;;;;;;;-2.35;78.44;99343.94;5104703;28;20421;-75
2023/02/13 09:22:39;;;;;;;;;;;;;;;-2.35;78.82;99335.91;5088483;28;20390;-74
2023/02/13 09:25:05;;;;;;;;;;;;;;;-2.33;79.12;99325.81;5106797;28;19935;-75
2023/02/13 09:27:32;;;;;;;;;;;;;;;-2.35;79.56;99327.03;5087760;28;20322;-74
2023/02/13 09:29:59;;;;;;;;;;;;;;;-2.36;80.01;99320.03;5084033;28;20311;-74
2023/02/13 09:32:25;;;;;;;;;;;;;;;-2.30;80.18;99319.25;5100358;28;19934;-74
2023/02/13 09:34:51;;;;;;;;;;;;;;;-2.17;80.35;99310.41;5099912;28;20399;-75
2023/02/13 09:37:17;;;;;;;;;;;;;;;-2.06;80.32;99308.97;5104167;28;20384;-76
2023/02/13 09:39:43;;;;;;;;;;;;;;;-2.06;80.71;99296.41;5100785;28;19939;-76
2023/02/13 09:42:16;;;;;;;;;;;;;;;-2.07;81.01;99299.28;5105108;28;19963;-76
2023/02/13 09:44:42;;;;;;;;;;;;;;;-1.92;81.47;99291.88;5098621;28;19931;-74
2023/02/13 09:47:13;;;;;;;;;;;;;;;-1.81;81.31;99285.06;5106616;28;19934;-75
2023/02/13 09:49:40;;;;;;;;;;;;;;;-1.69;81.19;99279.09;5103939;28;19935;-74
2023/02/13 09:52:08;;;;;;;;;;;;;;;-1.65;81.07;99274.97;5103732;28;19950;-75
2023/02/13 09:54:34;;;;;;;;;;;;;;;-1.58;81.31;99268.56;5103289;28;19975;-74
2023/02/13 09:57:04;;;;;;;;;;;;;;;-1.42;81.30;99263.78;5101591;28;19931;-74
2023/02/13 09:59:39;;;;;;;;;;;;;;;-1.22;80.75;99257.59;5100867;28;19928;-75
2023/02/13 10:02:13;;;;;;;;;;;;;;;-1.02;80.60;99260.19;5105204;28;19934;-76
2023/02/13 10:04:46;;;;;;;;;;;;;;;-0.98;79.87;99255.22;5101273;28;19928;-75
2023/02/13 10:07:19;;;;;;;;;;;;;;;-1.19;79.99;99251.78;5096342;28;19977;-76
2023/02/13 10:09:52;;;;;;;;;;;;;;;-1.26;80.66;99248.28;5100076;27;19971;-76
2023/02/13 10:12:38;;;;;;;;;;;;;;;-1.27;80.42;99242.09;5080044;28;19928;-76
2023/02/13 10:15:11;;;;;;;;;;;;;;;-1.23;80.77;99242.53;5096640;28;20014;-76
2023/02/13 10:17:40;;;;;;;;;;;;;;;-1.32;80.69;99240.06;5100634;28;20044;-75
2023/02/13 10:20:16;;;;;;;;;;;;;;;-1.27;81.03;99231.38;5083414;28;19931;-75
2023/02/13 10:22:45;;;;;;;;;;;;;;;-1.18;80.70;99240.00;5102365;28;20109;-76
2023/02/13 10:25:15;;;;;;;;;;;;;;;-1.23;80.65;99243.31;5107215;28;20390;-76
2023/02/13 10:27:43;;;;;;;;;;;;;;;-1.28;80.78;99243.16;5107028;28;20369;-75
2023/02/13 10:30:17;;;;;;;;;;;;;;;-1.30;80.54;99246.03;5108670;28;19953;-76
2023/02/13 10:32:46;;;;;;;;;;;;;;;-1.44;80.88;99241.72;5107494;28;19931;-76
2023/02/13 10:35:18;;;;;;;;;;;;;;;-1.49;81.16;99245.03;5096408;28;20430;-76
2023/02/13 10:37:49;;;;;;;;;;;;;;;-1.51;81.40;99247.09;5086767;28;19963;-75
2023/02/13 10:40:16;;;;;;;;;;;;;;;-1.52;81.47;99239.28;5102236;28;19934;-75
2023/02/13 10:42:44;;;;;;;;;;;;;;;-1.47;81.49;99226.06;5101721;28;19973;-75
2023/02/13 10:45:17;;;;;;;;;;;;;;;-1.40;81.31;99213.47;5093165;28;20434;-75
2023/02/13 10:47:53;;;;;;;;;;;;;;;-1.36;81.14;99214.69;5085830;28;19932;-76
2023/02/13 10:50:25;;;;;;;;;;;;;;;-1.24;80.69;99206.81;5096451;28;19928;-76
2023/02/13 10:52:56;;;;;;;;;;;;;;;-1.16;80.54;99203.06;5097206;28;20402;-76
2023/02/13 10:55:30;;;;;;;;;;;;;;;-1.04;80.30;99200.53;5085709;28;20020;-76
2023/02/13 10:58:06;;;;;;;;;;;;;;;-1.04;79.78;99196.00;5102515;28;20405;-75
2023/02/13 11:00:34;;;;;;;;;;;;;;;-1.04;79.62;99184.44;5099356;28;19951;-76
2023/02/13 11:03:00;;;;;;;;;;;;;;;-1.05;79.84;99183.63;5100463;28;19928;-76
2023/02/13 11:05:31;;;;;;;;;;;;;;;-1.05;79.77;99175.56;5100616;28;20535;-76
2023/02/13 11:07:58;;;;;;;;;;;;;;;-0.94;79.95;99179.44;5098138;28;20067;-75
2023/02/13 11:10:26;;;;;;;;;;;;;;;-0.84;79.46;99178.16;5096605;28;19973;-75
2023/02/13 11:12:52;;;;;;;;;;;;;;;-0.82;79.55;99174.19;5105419;28;19938;-76
2023/02/13 11:15:21;;;;;;;;;;;;;;;-0.79;79.45;99168.38;5105598;28;19931;-74
2023/02/13 11:17:48;;;;;;;;;;;;;;;-0.78;79.75;99158.50;5086270;28;20433;-74
2023/02/13 11:20:30;;;;;;;;;;;;;;;-0.80;80.02;99158.69;5102042;28;20026;-74
2023/02/13 11:23:14;;;;;;;;;;;;;;;-0.81;80.13;99167.78;5100364;28;19935;-74
2023/02/13 11:25:40;;;;;;;;;;;;;;;-0.85;80.20;99161.22;5103688;28;19928;-74
2023/02/13 11:28:07;;;;;;;;;;;;;;;-0.92;80.43;99158.56;5103211;28;19934;-75
2023/02/13 11:30:34;;;;;;;;;;;;;;;-0.89;80.74;99165.38;5103425;28;19945;-75
2023/02/13 11:33:01;;;;;;;;;;;;;;;-0.87;80.92;99156.03;5086788;28;19928;-75
2023/02/13 11:35:29;;;;;;;;;;;;;;;-0.84;80.67;99160.16;5106169;28;19936;-75
2023/02/13 11:38:19;;;;;;;;;;;;;;;-0.83;80.83;99155.63;5104463;28;19966;-76
2023/02/13 11:40:48;;;;;;;;;;;;;;;-0.85;81.18;99147.78;5075041;28;20083;-75
2023/02/13 11:43:17;;;;;;;;;;;;;;;-0.86;81.32;99154.19;5101854;28;19928;-75
2023/02/13 11:45:43;;;;;;;;;;;;;;;-0.82;81.24;99144.66;5105697;28;19938;-75
2023/02/13 11:48:18;;;;;;;;;;;;;;;-0.77;81.31;99135.97;5105334;28;19927;-75
2023/02/13 11:50:49;;;;;;;;;;;;;;;-0.70;81.03;99135.94;5101242;28;20338;-75
2023/02/13 11:53:18;;;;;;;;;;;;;;;-0.69;80.70;99126.84;5104839;28;19972;-74
2023/02/13 11:55:45;;;;;;;;;;;;;;;-0.65;80.78;99130.72;5102212;27;19927;-76
2023/02/13 11:58:22;;;;;;;;;;;;;;;-0.63;80.58;99121.41;5100725;28;19928;-75
2023/02/13 12:00:48;;;;;;;;;;;;;;;-0.72;80.79;99099.38;5104493;28;19978;-75
2023/02/13 12:03:25;;;;;;;;;;;;;;;-0.58;80.85;99112.72;5101416;28;19966;-75
2023/02/13 12:05:59;;;;;;;;;;;;;;;-0.48;80.73;99110.34;5102522;27;20027;-76
2023/02/13 12:08:25;;;;;;;;;;;;;;;-0.37;80.22;99105.31;5103883;28;19928;-75
2023/02/13 12:10:52;;;;;;;;;;;;;;;-0.38;80.09;99101.81;5108865;28;20377;-76
2023/02/13 12:13:23;;;;;;;;;;;;;;;-0.32;80.10;99097.41;5105845;28;19928;-75
2023/02/13 12:15:56;;;;;;;;;;;;;;;-0.31;80.00;99089.13;5105455;28;19934;-76
2023/02/13 12:18:25;;;;;;;;;;;;;;;-0.32;79.80;99082.13;5105066;28;19935;-76
2023/02/13 12:21:01;;;;;;;;;;;;;;;-0.27;79.78;99084.16;5103189;28;20433;-76
2023/02/13 12:23:32;;;;;;;;;;;;;;;-0.29;79.79;99080.84;5100884;28;20465;-76
2023/02/13 12:26:02;;;;;;;;;;;;;;;-0.31;79.74;99078.38;5087229;28;19934;-76
2023/02/13 12:28:37;;;;;;;;;;;;;;;-0.28;79.78;99077.13;5099844;28;20266;-76
2023/02/13 12:31:17;;;;;;;;;;;;;;;-0.28;79.83;99085.19;5103160;28;19934;-77
2023/02/13 12:34:02;;;;;;;;;;;;;;;-0.35;79.87;99084.41;5104779;28;20013;-76
2023/02/13 12:36:33;;;;;;;;;;;;;;;-0.38;80.14;99087.53;5100311;28;20452;-76
2023/02/13 12:39:06;;;;;;;;;;;;;;;-0.39;80.15;99092.09;5068698;28;19928;-75
2023/02/13 12:41:37;;;;;;;;;;;;;;;-0.39;80.36;99067.94;5103513;28;19932;-75
2023/02/13 12:44:15;;;;;;;;;;;;;;;-0.41;80.19;99066.50;5101605;28;19928;-74
2023/02/13 12:46:51;;;;;;;;;;;;;;;-0.39;80.15;99056.34;5100335;28;20018;-74
2023/02/13 12:49:27;;;;;;;;;;;;;;;-0.41;80.39;99071.88;5088083;28;19935;-76
2023/02/13 12:52:02;;;;;;;;;;;;;;;-0.37;80.28;99070.38;5106075;28;19928;-75
2023/02/13 12:54:40;;;;;;;;;;;;;;;-0.36;80.06;99063.97;5101936;27;20366;-76
2023/02/13 12:57:14;;;;;;;;;;;;;;;-0.37;80.13;99054.25;5100901;28;19992;-76
2023/02/13 12:59:47;;;;;;;;;;;;;;;-0.34;80.44;99048.44;5084713;28;20306;-75
2023/02/13 13:02:44;;;;;;;;;;;;;;;-0.34;80.39;99049.28;5085826;28;19927;-76
2023/02/13 13:05:18;;;;;;;;;;;;;;;-0.33;80.35;99044.72;5044025;28;19935;-75
2023/02/13 13:07:53;;;;;;;;;;;;;;;-0.27;80.45;99029.56;5090783;28;19927;-76
2023/02/13 13:10:35;;;;;;;;;;;;;;;-0.23;80.52;99033.47;5102838;28;19931;-76
2023/02/13 13:13:03;;;;;;;;;;;;;;;-0.28;80.59;99036.81;5102385;28;19928;-76
2023/02/13 13:15:34;;;;;;;;;;;;;;;-0.25;80.81;99033.69;5104616;28;19931;-75
2023/02/13 13:18:06;;;;;;;;;;;;;;;-0.31;81.26;99026.53;5099432;27;19972;-76
2023/02/13 13:20:50;;;;;;;;;;;;;;;-0.33;81.24;99037.47;5102403;28;20018;-74
2023/02/13 13:23:21;;;;;;;;;;;;;;;-0.32;81.03;99023.00;5100454;28;19971;-75
2023/02/13 13:25:50;;;;;;;;;;;;;;;-0.26;81.03;99025.84;5102142;28;19928;-74
2023/02/13 13:28:18;;;;;;;;;;;;;;;-0.27;80.98;99026.88;5103945;28;20028;-74
2023/02/13 13:30:46;;;;;;;;;;;;;;;-0.31;81.16;99024.66;5104325;28;20412;-73
2023/02/13 13:33:15;;;;;;;;;;;;;;;-0.32;80.96;99025.69;5085146;28;20000;-74